Terminal Aerodrome Forecast
Issued by NWS Northern Indiana

Home | Current Version | Previous Version | Graphics & Text | Print | Product List | Glossary On
Versions: 1 2 3 4 5 6 7 8 9 10 11 12 13 14 15 16 17 18
122
FTUS43 KIWX 152325
TAFFWA
TAF
KFWA 152325Z 1600/1624 VRB03KT P6SM BKN200
     FM161400 10004KT P6SM OVC025
     FM161500 10004KT P6SM VCSH OVC015
     FM161700 10005KT P6SM VCSH OVC008
     FM161800 10005KT 4SM -RA OVC008=

USA.gov is the U.S. government's official web portal to all federal, state and local government web resources and services.